Time;durP1;ratioP1;P1;durP2;ratioP2;P2;SDS_P1;SDS_P2;PMS_P1;PMS_P2;Temp;Humidity;BMP_temperature;BMP_pressure;BME280_temperature;BME280_humidity;BME280_pressure;Samples;Min_cycle;Max_cycle;Signal;HPM_P1;HPM_P2
2022/03/14 00:01:07;;;;;;;2.58;2.13;;;;;;;11.45;81.14;101637.28;5071381;28;20024;-69
2022/03/14 00:03:40;;;;;;;3.47;2.28;;;;;;;11.46;81.14;101654.91;5044432;28;20082;-70
2022/03/14 00:06:10;;;;;;;2.60;2.35;;;;;;;11.45;81.19;101647.81;5042617;28;20392;-69
2022/03/14 00:08:37;;;;;;;3.03;2.30;;;;;;;11.43;81.33;101653.91;5049569;28;20029;-69
2022/03/14 00:11:02;;;;;;;3.47;2.40;;;;;;;11.42;81.49;101652.13;5061993;28;20123;-69
2022/03/14 00:13:28;;;;;;;3.30;2.50;;;;;;;11.39;81.28;101650.28;5067092;28;20028;-69
2022/03/14 00:15:55;;;;;;;3.17;2.67;;;;;;;11.40;81.48;101651.19;5063711;28;20036;-69
2022/03/14 00:18:20;;;;;;;3.15;2.38;;;;;;;11.39;81.73;101657.31;5068853;28;20036;-69
2022/03/14 00:20:48;;;;;;;2.90;2.15;;;;;;;11.40;81.48;101660.00;5067335;28;20392;-69
2022/03/14 00:23:16;;;;;;;3.17;2.50;;;;;;;11.40;81.57;101653.84;5064930;28;20056;-69
2022/03/14 00:25:41;;;;;;;4.78;2.45;;;;;;;11.39;81.74;101663.47;5063716;28;20082;-69
2022/03/14 00:28:07;;;;;;;3.03;2.53;;;;;;;11.34;82.10;101665.13;5058668;28;20033;-69
2022/03/14 00:30:32;;;;;;;2.88;2.58;;;;;;;11.37;81.78;101661.66;5060591;28;20096;-69
2022/03/14 00:32:57;;;;;;;2.63;2.22;;;;;;;11.32;82.39;101665.91;5061230;28;20100;-69
2022/03/14 00:35:23;;;;;;;3.72;2.30;;;;;;;11.29;82.55;101664.09;5055683;28;20461;-69
2022/03/14 00:37:48;;;;;;;3.28;2.42;;;;;;;11.31;82.39;101665.00;5060803;28;20028;-69
2022/03/14 00:40:14;;;;;;;2.50;2.30;;;;;;;11.29;82.48;101672.00;5067559;28;20032;-69
2022/03/14 00:42:40;;;;;;;3.63;2.38;;;;;;;11.29;82.72;101677.28;5061821;28;20109;-69
2022/03/14 00:45:06;;;;;;;3.42;2.63;;;;;;;11.31;82.71;101675.56;5064513;28;20028;-69
2022/03/14 00:47:31;;;;;;;2.78;2.10;;;;;;;11.33;82.55;101679.13;5073364;28;20032;-69
2022/03/14 00:49:57;;;;;;;3.63;2.67;;;;;;;11.28;82.82;101676.34;5067289;28;20029;-69
2022/03/14 00:52:22;;;;;;;3.67;2.58;;;;;;;11.28;82.76;101676.34;5052118;28;20075;-69
2022/03/14 00:54:47;;;;;;;3.17;2.47;;;;;;;11.31;82.88;101688.72;5045291;28;20045;-69
2022/03/14 00:57:14;;;;;;;3.15;2.60;;;;;;;11.26;83.35;101682.47;5057011;28;20090;-69
2022/03/14 00:59:40;;;;;;;3.13;2.70;;;;;;;11.20;83.86;101695.44;5061967;28;20385;-69
2022/03/14 01:02:07;;;;;;;2.50;2.30;;;;;;;11.25;83.36;101694.72;5063323;28;20036;-69
2022/03/14 01:04:32;;;;;;;3.35;2.58;;;;;;;11.19;83.92;101691.03;5055840;28;20032;-69
2022/03/14 01:06:57;;;;;;;4.35;2.80;;;;;;;11.19;83.79;101693.66;5067699;28;20029;-69
2022/03/14 01:09:23;;;;;;;5.05;2.70;;;;;;;11.11;84.58;101694.34;5053260;28;20465;-69
2022/03/14 01:11:48;;;;;;;3.65;2.63;;;;;;;11.07;84.89;101695.13;5059546;28;20031;-68
2022/03/14 01:14:14;;;;;;;3.63;2.75;;;;;;;11.08;84.94;101710.06;5062350;28;20029;-69
2022/03/14 01:16:40;;;;;;;3.13;2.80;;;;;;;11.03;85.34;101710.75;5062567;28;20099;-69
2022/03/14 01:19:11;;;;;;;5.40;2.83;;;;;;;10.99;85.60;101715.06;5064667;28;20036;-69
2022/03/14 01:21:38;;;;;;;4.43;3.20;;;;;;;11.03;85.34;101711.69;5062467;28;20073;-69
2022/03/14 01:24:04;;;;;;;4.05;3.10;;;;;;;10.99;85.76;101709.81;5061528;28;20025;-68
2022/03/14 01:26:29;;;;;;;4.57;2.95;;;;;;;10.97;86.08;101716.75;5058466;28;20033;-68
2022/03/14 01:28:54;;;;;;;4.25;3.38;;;;;;;10.86;86.33;101712.94;5062075;28;20046;-68
2022/03/14 01:31:19;;;;;;;4.07;3.20;;;;;;;10.90;86.28;101717.44;5059913;28;20028;-68
2022/03/14 01:33:45;;;;;;;3.10;2.70;;;;;;;10.90;86.68;101714.81;5037223;28;20025;-68
2022/03/14 01:36:10;;;;;;;3.90;3.33;;;;;;;10.86;86.39;101723.47;5067468;28;20021;-69
2022/03/14 01:38:36;;;;;;;4.20;3.00;;;;;;;10.86;86.55;101718.19;5064198;28;20373;-68
2022/03/14 01:41:01;;;;;;;3.53;3.20;;;;;;;10.91;86.48;101716.59;5056793;28;20473;-69
2022/03/14 01:43:27;;;;;;;4.38;3.17;;;;;;;10.93;86.41;101726.34;5063184;28;20024;-69
2022/03/14 01:45:56;;;;;;;4.88;3.00;;;;;;;10.92;86.24;101714.00;5068264;28;20352;-68
2022/03/14 01:48:22;;;;;;;4.00;2.92;;;;;;;10.88;86.71;101729.66;5063019;28;20032;-68
2022/03/14 01:50:48;;;;;;;3.78;3.10;;;;;;;10.80;86.87;101724.19;5062313;28;20078;-68
2022/03/14 01:53:14;;;;;;;4.68;3.03;;;;;;;10.74;87.27;101727.53;5071121;28;20087;-69
2022/03/14 01:55:39;;;;;;;3.70;3.10;;;;;;;10.88;86.78;101737.53;5064131;28;20420;-69
2022/03/14 01:58:05;;;;;;;5.28;3.20;;;;;;;10.80;87.48;101740.84;5070602;28;20044;-69
2022/03/14 02:00:31;;;;;;;4.30;3.30;;;;;;;10.70;90.37;101754.59;5061934;28;20057;-68
2022/03/14 02:02:57;;;;;;;4.65;3.72;;;;;;;10.58;93.92;101754.19;5041566;28;20039;-69
2022/03/14 02:05:22;;;;;;;4.95;4.45;;;;;;;10.51;95.87;101768.00;5059372;28;20017;-68
2022/03/14 02:07:47;;;;;;;5.53;4.90;;;;;;;10.09;99.49;101775.44;5062955;28;20535;-69
2022/03/14 02:10:13;;;;;;;7.15;4.55;;;;;;;10.05;100.00;101775.25;5066349;28;20033;-69
2022/03/14 02:12:43;;;;;;;5.07;4.57;;;;;;;10.00;100.00;101783.00;5063279;28;20070;-69
2022/03/14 02:15:08;;;;;;;4.88;4.20;;;;;;;9.98;100.00;101776.78;5062584;28;20382;-69
2022/03/14 02:17:34;;;;;;;5.78;4.53;;;;;;;9.98;100.00;101775.91;5064713;28;20056;-69
2022/03/14 02:20:00;;;;;;;5.45;4.68;;;;;;;9.78;100.00;101784.88;5061364;28;20036;-68
2022/03/14 02:22:25;;;;;;;6.70;4.60;;;;;;;9.81;100.00;101798.97;5065749;28;20028;-67
2022/03/14 02:24:50;;;;;;;6.20;4.78;;;;;;;9.91;100.00;101796.72;5061770;28;20094;-68
2022/03/14 02:27:16;;;;;;;8.07;5.60;;;;;;;9.88;100.00;101814.13;5055604;28;20033;-68
2022/03/14 02:29:42;;;;;;;6.22;5.32;;;;;;;9.85;100.00;101808.75;5064804;28;20571;-68
2022/03/14 02:32:11;;;;;;;6.38;5.65;;;;;;;9.87;100.00;101812.34;5066447;28;20059;-68
2022/03/14 02:34:36;;;;;;;6.80;6.10;;;;;;;9.87;100.00;101810.59;5060635;28;20024;-68
2022/03/14 02:37:03;;;;;;;7.60;6.38;;;;;;;9.85;100.00;101817.53;5071168;28;20055;-68
2022/03/14 02:39:28;;;;;;;8.65;6.45;;;;;;;9.88;100.00;101819.41;5060069;28;20033;-68
2022/03/14 02:41:54;;;;;;;8.43;7.28;;;;;;;9.78;100.00;101821.69;5057507;28;20021;-68
2022/03/14 02:44:19;;;;;;;10.70;8.60;;;;;;;9.75;100.00;101823.31;5063068;28;20435;-68
2022/03/14 02:46:45;;;;;;;11.35;9.02;;;;;;;9.76;100.00;101817.22;5062729;28;20111;-68
2022/03/14 02:49:11;;;;;;;11.90;8.95;;;;;;;9.81;100.00;101823.53;5060764;28;20106;-68
2022/03/14 02:51:41;;;;;;;15.18;10.88;;;;;;;9.72;100.00;101820.56;5061164;28;20380;-68
2022/03/14 02:54:10;;;;;;;15.02;11.82;;;;;;;9.80;100.00;101829.63;5037131;28;20498;-68
2022/03/14 02:56:37;;;;;;;14.77;11.98;;;;;;;9.83;100.00;101836.72;5060036;28;20079;-68
2022/03/14 02:59:04;;;;;;;14.80;12.07;;;;;;;9.72;100.00;101831.97;5059746;28;20028;-68
2022/03/14 03:01:29;;;;;;;16.42;13.43;;;;;;;9.78;100.00;101831.31;5063172;28;20083;-68
2022/03/14 03:03:54;;;;;;;15.95;12.40;;;;;;;9.81;100.00;101835.75;5042684;28;20037;-68
2022/03/14 03:06:23;;;;;;;15.70;13.15;;;;;;;9.91;100.00;101843.16;5056701;28;20056;-68
2022/03/14 03:08:53;;;;;;;15.05;12.18;;;;;;;9.75;100.00;101845.25;5063312;28;20380;-69
2022/03/14 03:11:19;;;;;;;15.18;12.13;;;;;;;9.80;100.00;101850.66;5062487;28;20024;-69
2022/03/14 03:13:47;;;;;;;14.40;12.18;;;;;;;9.75;100.00;101850.50;5057259;28;20476;-69
2022/03/14 03:16:14;;;;;;;13.82;11.70;;;;;;;9.71;100.00;101859.13;5059621;28;20016;-68
2022/03/14 03:18:40;;;;;;;14.73;11.35;;;;;;;9.59;100.00;101856.00;5044377;28;20406;-68
2022/03/14 03:21:05;;;;;;;15.13;11.55;;;;;;;9.48;100.00;101862.63;5064254;28;20021;-68
2022/03/14 03:23:31;;;;;;;14.30;12.13;;;;;;;9.39;100.00;101871.94;5065660;28;20029;-68
2022/03/14 03:25:56;;;;;;;16.27;12.35;;;;;;;9.26;100.00;101882.81;5070309;28;20056;-68
2022/03/14 03:28:22;;;;;;;13.93;12.02;;;;;;;9.25;100.00;101886.25;5069327;28;20032;-68
2022/03/14 03:30:48;;;;;;;16.63;13.35;;;;;;;9.16;100.00;101885.94;5046971;28;20037;-68
2022/03/14 03:33:13;;;;;;;16.45;12.75;;;;;;;9.16;100.00;101885.94;5069572;28;20048;-68
2022/03/14 03:35:38;;;;;;;18.95;14.95;;;;;;;9.15;100.00;101886.75;5048492;28;20036;-68
2022/03/14 03:38:05;;;;;;;18.00;14.60;;;;;;;9.09;100.00;101892.66;5074742;28;20029;-68
2022/03/14 03:40:30;;;;;;;18.95;15.10;;;;;;;9.08;100.00;101899.63;5055416;28;20077;-68
2022/03/14 03:42:55;;;;;;;21.30;16.17;;;;;;;9.18;100.00;101897.38;5062883;28;20116;-68
2022/03/14 03:45:21;;;;;;;19.30;15.38;;;;;;;9.19;100.00;101902.69;5071880;28;20107;-68
2022/03/14 03:47:46;;;;;;;20.23;16.08;;;;;;;9.22;100.00;101907.16;5045418;28;20489;-68
2022/03/14 03:50:12;;;;;;;21.00;16.45;;;;;;;9.16;100.00;101912.19;5074775;28;20024;-68
2022/03/14 03:52:37;;;;;;;23.52;17.02;;;;;;;9.22;100.00;101909.78;5065720;28;20048;-68
2022/03/14 03:55:04;;;;;;;21.23;16.02;;;;;;;9.10;100.00;101924.22;5070546;28;20051;-68
2022/03/14 03:57:30;;;;;;;20.98;15.48;;;;;;;9.10;100.00;101939.06;5062575;28;20116;-69
2022/03/14 03:59:56;;;;;;;18.98;14.05;;;;;;;9.13;100.00;101938.31;5069483;28;20521;-68
2022/03/14 04:02:22;;;;;;;18.48;12.55;;;;;;;9.05;100.00;101941.53;5061815;28;20053;-69
2022/03/14 04:04:49;;;;;;;20.27;13.40;;;;;;;8.99;100.00;101951.75;5067918;28;20082;-69
2022/03/14 04:07:18;;;;;;;14.82;11.90;;;;;;;8.98;100.00;101962.22;5047835;28;20035;-69
2022/03/14 04:09:44;;;;;;;15.95;12.00;;;;;;;9.00;100.00;101964.06;5067380;28;20028;-69
2022/03/14 04:12:09;;;;;;;16.67;11.77;;;;;;;8.95;100.00;101965.59;5061710;28;20024;-68
2022/03/14 04:14:35;;;;;;;17.55;9.82;;;;;;;8.91;100.00;101963.69;5075563;28;20469;-69
2022/03/14 04:17:00;;;;;;;15.20;10.75;;;;;;;8.93;100.00;101970.78;5063500;28;20035;-69
2022/03/14 04:19:25;;;;;;;16.33;10.18;;;;;;;8.90;100.00;101977.66;5066847;28;20115;-69
2022/03/14 04:21:52;;;;;;;17.52;10.65;;;;;;;8.91;100.00;101976.81;5064072;28;20542;-69
2022/03/14 04:24:19;;;;;;;15.65;9.73;;;;;;;8.92;100.00;101982.13;5064960;28;20162;-69
2022/03/14 04:26:46;;;;;;;19.58;10.60;;;;;;;8.93;100.00;101980.41;5060037;28;20021;-69
2022/03/14 04:29:11;;;;;;;15.20;8.57;;;;;;;8.90;100.00;101996.03;5056186;28;20384;-69
2022/03/14 04:31:37;;;;;;;14.52;8.80;;;;;;;8.97;100.00;101995.44;5037744;28;20030;-69
2022/03/14 04:34:02;;;;;;;14.70;8.80;;;;;;;8.89;100.00;102010.00;5061108;28;20033;-69
2022/03/14 04:36:27;;;;;;;16.73;8.52;;;;;;;8.89;100.00;102021.38;5064206;28;20029;-68
2022/03/14 04:38:53;;;;;;;15.70;7.82;;;;;;;8.81;100.00;102022.78;5064601;28;20089;-69
2022/03/14 04:41:18;;;;;;;16.48;7.63;;;;;;;8.84;100.00;102029.88;5062690;28;20786;-69
2022/03/14 04:43:43;;;;;;;16.05;6.78;;;;;;;8.82;100.00;102039.41;5066372;28;20028;-69
2022/03/14 04:46:09;;;;;;;16.20;7.25;;;;;;;8.75;100.00;102038.28;5055317;28;20024;-69
2022/03/14 04:48:34;;;;;;;14.15;7.55;;;;;;;8.76;100.00;102043.59;5062403;28;20028;-69
2022/03/14 04:51:00;;;;;;;13.98;7.07;;;;;;;8.76;100.00;102042.66;5065494;28;20028;-69
2022/03/14 04:53:25;;;;;;;12.70;7.07;;;;;;;8.77;100.00;102058.47;5065135;28;20048;-69
2022/03/14 04:55:51;;;;;;;15.75;8.00;;;;;;;8.79;100.00;102058.56;5060425;28;20032;-69
2022/03/14 04:58:17;;;;;;;15.90;8.35;;;;;;;8.77;100.00;102061.09;5052751;28;20090;-69
2022/03/14 05:00:43;;;;;;;13.02;7.15;;;;;;;8.73;100.00;102066.16;5067740;28;20094;-69
2022/03/14 05:03:09;;;;;;;16.00;7.30;;;;;;;8.74;100.00;102074.09;5062800;28;20076;-69
2022/03/14 05:05:34;;;;;;;16.48;7.50;;;;;;;8.75;100.00;102078.53;5056079;28;20031;-68
2022/03/14 05:08:02;;;;;;;15.95;7.55;;;;;;;8.74;100.00;102084.59;5070246;28;20115;-69
2022/03/14 05:10:28;;;;;;;14.27;7.82;;;;;;;8.75;100.00;102089.03;5061163;28;20074;-69
2022/03/14 05:12:53;;;;;;;20.95;8.52;;;;;;;8.77;100.00;102092.59;5055120;28;20033;-70
2022/03/14 05:15:19;;;;;;;12.93;8.38;;;;;;;8.74;100.00;102105.59;5069079;28;20082;-69
2022/03/14 05:17:45;;;;;;;21.38;9.10;;;;;;;8.78;100.00;102109.25;5068041;28;20056;-69
2022/03/14 05:20:12;;;;;;;20.55;9.82;;;;;;;8.73;100.00;102111.66;5039074;28;20035;-69
2022/03/14 05:22:55;;;;;;;20.42;10.82;;;;;;;8.76;100.00;102111.81;5068730;28;20438;-68
2022/03/14 05:25:22;;;;;;;19.13;10.63;;;;;;;8.75;100.00;102117.88;5067417;28;20016;-69
2022/03/14 05:27:48;;;;;;;20.20;11.02;;;;;;;8.81;100.00;102122.50;5055968;28;20025;-69
2022/03/14 05:30:15;;;;;;;23.00;11.85;;;;;;;8.74;100.00;102118.72;5065025;28;20131;-69
2022/03/14 05:32:40;;;;;;;24.17;13.35;;;;;;;8.63;100.00;102119.06;5058884;28;20048;-69
2022/03/14 05:35:15;;;;;;;22.40;14.18;;;;;;;8.64;100.00;102121.78;5059503;28;20048;-69
2022/03/14 05:37:42;;;;;;;24.60;14.30;;;;;;;8.66;100.00;102125.34;5065617;28;20046;-69
2022/03/14 05:40:08;;;;;;;19.45;13.75;;;;;;;8.63;100.00;102130.47;5066911;28;20033;-69
2022/03/14 05:42:33;;;;;;;23.38;13.93;;;;;;;8.58;100.00;102131.97;5042567;28;20059;-69
2022/03/14 05:44:59;;;;;;;24.55;14.75;;;;;;;8.50;100.00;102133.34;5063707;28;20056;-69
2022/03/14 05:47:24;;;;;;;20.90;14.63;;;;;;;8.49;100.00;102136.78;5038925;28;20086;-69
2022/03/14 05:49:50;;;;;;;23.30;14.95;;;;;;;8.53;100.00;102144.91;5056841;28;20079;-69
2022/03/14 05:52:16;;;;;;;23.48;15.35;;;;;;;8.42;100.00;102147.00;5068510;28;20483;-69
2022/03/14 05:54:41;;;;;;;25.73;15.68;;;;;;;8.48;100.00;102151.66;5060773;28;20068;-69
2022/03/14 05:57:07;;;;;;;23.95;15.63;;;;;;;8.51;100.00;102143.03;5066002;28;20116;-69
2022/03/14 05:59:32;;;;;;;22.35;14.80;;;;;;;8.48;100.00;102153.34;5067462;28;20036;-69
2022/03/14 06:01:57;;;;;;;22.40;14.13;;;;;;;8.38;100.00;102159.88;5065501;28;20033;-69
2022/03/14 06:04:23;;;;;;;23.85;15.68;;;;;;;8.40;100.00;102164.38;5068069;28;20024;-69
2022/03/14 06:06:48;;;;;;;18.90;13.88;;;;;;;8.47;100.00;102177.81;5063956;28;20029;-69
2022/03/14 06:09:16;;;;;;;23.02;14.02;;;;;;;8.39;100.00;102178.28;5063104;28;20384;-69
2022/03/14 06:11:42;;;;;;;18.15;13.15;;;;;;;8.47;100.00;102191.81;5066137;28;20057;-68
2022/03/14 06:14:08;;;;;;;21.27;14.00;;;;;;;8.47;100.00;102190.94;5069911;28;20123;-68
2022/03/14 06:16:34;;;;;;;24.10;14.95;;;;;;;8.47;100.00;102198.81;5043357;28;20021;-68
2022/03/14 06:18:59;;;;;;;27.42;13.93;;;;;;;8.44;100.00;102203.03;5064416;28;20115;-68
2022/03/14 06:21:24;;;;;;;26.92;14.95;;;;;;;8.42;100.00;102202.06;5060561;28;20099;-68
2022/03/14 06:23:50;;;;;;;30.85;14.13;;;;;;;8.48;100.00;102211.97;5072050;28;20504;-71
2022/03/14 06:26:15;;;;;;;20.67;13.57;;;;;;;8.47;100.00;102211.91;5059864;28;20036;-67
2022/03/14 06:28:42;;;;;;;25.52;13.50;;;;;;;8.49;100.00;102221.66;5063365;28;20091;-70
2022/03/14 06:31:11;;;;;;;21.67;13.55;;;;;;;8.46;100.00;102218.88;5071274;28;20429;-70
2022/03/14 06:33:37;;;;;;;23.75;12.98;;;;;;;8.50;100.00;102227.78;5055940;28;20033;-71
2022/03/14 06:36:03;;;;;;;18.27;13.25;;;;;;;8.57;100.00;102222.00;5062927;28;20053;-72
2022/03/14 06:38:28;;;;;;;39.53;14.73;;;;;;;8.47;100.00;102231.16;5052006;28;20029;-71
2022/03/14 06:40:56;;;;;;;29.38;14.05;;;;;;;8.42;100.00;102233.56;5050274;28;20028;-70
2022/03/14 06:43:22;;;;;;;19.75;13.65;;;;;;;8.46;100.00;102236.34;5054087;28;20133;-71
2022/03/14 06:45:48;;;;;;;20.60;13.23;;;;;;;8.43;100.00;102239.69;5047680;28;20044;-72
2022/03/14 06:48:14;;;;;;;43.83;14.13;;;;;;;8.50;100.00;102243.53;5047498;28;20032;-71
2022/03/14 06:50:39;;;;;;;19.23;13.50;;;;;;;8.52;100.00;102249.72;5050737;28;20040;-72
2022/03/14 06:53:05;;;;;;;19.42;13.20;;;;;;;8.54;100.00;102255.97;5062277;28;20036;-71
2022/03/14 06:55:31;;;;;;;21.17;13.45;;;;;;;8.50;100.00;102267.16;5059876;28;20035;-70
2022/03/14 06:57:56;;;;;;;31.20;14.35;;;;;;;8.55;100.00;102263.03;5051211;28;20108;-70
2022/03/14 07:00:22;;;;;;;21.20;13.95;;;;;;;8.58;100.00;102273.66;5055390;28;20119;-70
2022/03/14 07:02:48;;;;;;;20.55;14.30;;;;;;;8.58;100.00;102274.53;5063966;28;20376;-71
2022/03/14 07:05:17;;;;;;;25.15;14.32;;;;;;;8.52;100.00;102269.03;5051633;28;20029;-70
2022/03/14 07:07:43;;;;;;;38.65;15.48;;;;;;;8.62;100.00;102272.97;5051399;28;20513;-68
2022/03/14 07:10:09;;;;;;;22.05;13.90;;;;;;;8.73;100.00;102277.00;5064580;28;20067;-68
2022/03/14 07:12:45;;;;;;;29.02;14.38;;;;;;;8.62;100.00;102267.72;5065787;28;20043;-68
2022/03/14 07:15:21;;;;;;;24.10;13.38;;;;;;;8.68;100.00;102281.16;5061480;28;20043;-68
2022/03/14 07:17:48;;;;;;;21.50;13.45;;;;;;;8.81;100.00;102272.13;5062084;28;20039;-68
2022/03/14 07:20:14;;;;;;;19.42;13.88;;;;;;;8.71;100.00;102276.03;5061536;28;20472;-70
2022/03/14 07:22:53;;;;;;;22.40;13.13;;;;;;;8.74;100.00;102280.53;5060623;28;20434;-68
2022/03/14 07:25:20;;;;;;;21.33;13.68;;;;;;;8.81;100.00;102290.50;5067168;28;20027;-68
2022/03/14 07:27:45;;;;;;;19.83;13.10;;;;;;;8.80;100.00;102287.78;5059885;28;20048;-68
2022/03/14 07:30:11;;;;;;;22.63;12.98;;;;;;;8.80;100.00;102293.03;5048442;28;20036;-68
2022/03/14 07:32:36;;;;;;;25.92;13.32;;;;;;;8.84;100.00;102289.72;5064066;28;20029;-68
2022/03/14 07:35:02;;;;;;;21.50;14.30;;;;;;;8.95;100.00;102288.50;5066578;28;20055;-68
2022/03/14 07:37:27;;;;;;;20.80;14.40;;;;;;;8.92;100.00;102285.75;5063783;28;20476;-68
2022/03/14 07:39:52;;;;;;;26.85;14.50;;;;;;;8.95;100.00;102293.75;5068123;28;20151;-68
2022/03/14 07:42:18;;;;;;;28.48;15.60;;;;;;;9.01;100.00;102296.69;5070905;28;20039;-71
2022/03/14 07:44:43;;;;;;;33.20;17.42;;;;;;;9.10;100.00;102294.47;5059534;28;20028;-71
2022/03/14 07:47:10;;;;;;;40.95;21.77;;;;;;;9.04;100.00;102301.19;5056985;28;20047;-70
2022/03/14 07:49:36;;;;;;;34.92;21.88;;;;;;;9.15;100.00;102309.56;5037275;28;20413;-70
2022/03/14 07:52:02;;;;;;;48.55;24.38;;;;;;;9.14;100.00;102306.00;5058027;28;20135;-70
2022/03/14 07:54:27;;;;;;;42.15;26.92;;;;;;;9.09;100.00;102303.19;5065012;28;20048;-70
2022/03/14 07:56:53;;;;;;;47.55;28.33;;;;;;;9.04;100.00;102320.44;5052750;28;20028;-71
2022/03/14 07:59:18;;;;;;;49.45;29.42;;;;;;;9.07;100.00;102323.19;5053349;28;20037;-71
2022/03/14 08:01:43;;;;;;;45.78;28.40;;;;;;;9.02;100.00;102324.75;5052352;28;20469;-71
2022/03/14 08:04:09;;;;;;;48.33;30.25;;;;;;;9.05;100.00;102330.13;5038061;28;20028;-71
2022/03/14 08:06:41;;;;;;;46.72;30.60;;;;;;;9.03;100.00;102347.53;5039960;28;20514;-71
2022/03/14 08:09:07;;;;;;;51.83;31.40;;;;;;;9.06;100.00;102352.94;5061663;28;20032;-71
2022/03/14 08:11:32;;;;;;;54.83;29.92;;;;;;;9.06;100.00;102359.91;5066104;28;20088;-71
2022/03/14 08:13:58;;;;;;;45.65;28.92;;;;;;;9.05;100.00;102368.63;5063286;28;20080;-69
2022/03/14 08:16:24;;;;;;;46.75;27.05;;;;;;;9.05;100.00;102364.25;5056970;28;20097;-70
2022/03/14 08:18:49;;;;;;;42.42;24.25;;;;;;;9.04;100.00;102375.59;5058491;28;20033;-71
2022/03/14 08:21:14;;;;;;;36.50;22.70;;;;;;;9.06;100.00;102373.94;5045657;28;20052;-70
2022/03/14 08:23:41;;;;;;;36.53;21.83;;;;;;;9.07;100.00;102374.84;5060036;28;20555;-70
2022/03/14 08:26:07;;;;;;;34.30;21.52;;;;;;;9.10;100.00;102380.22;5075123;28;20036;-70
2022/03/14 08:28:34;;;;;;;33.83;21.33;;;;;;;9.06;100.00;102384.44;5058155;28;20028;-70
2022/03/14 08:31:00;;;;;;;34.00;22.15;;;;;;;9.07;100.00;102390.59;5058696;28;20064;-70
2022/03/14 08:33:27;;;;;;;35.03;22.95;;;;;;;9.05;100.00;102387.91;5064644;28;20104;-71
2022/03/14 08:35:54;;;;;;;36.70;23.77;;;;;;;9.11;100.00;102393.44;5065997;28;20031;-71
2022/03/14 08:38:20;;;;;;;34.80;23.88;;;;;;;9.16;100.00;102400.66;5058132;28;20071;-70
2022/03/14 08:40:45;;;;;;;36.42;22.60;;;;;;;9.16;100.00;102400.66;5044757;28;20451;-70
2022/03/14 08:43:11;;;;;;;40.28;24.85;;;;;;;9.11;100.00;102403.03;5049049;28;20031;-72
2022/03/14 08:45:36;;;;;;;37.47;24.52;;;;;;;9.11;100.00;102409.22;5056223;28;20484;-72
2022/03/14 08:48:02;;;;;;;93.65;29.00;;;;;;;9.27;100.00;102409.91;5058238;28;20112;-70
2022/03/14 08:50:28;;;;;;;55.95;25.38;;;;;;;9.20;100.00;102405.22;5061111;28;20031;-70
2022/03/14 08:52:53;;;;;;;45.28;24.95;;;;;;;9.25;100.00;102416.81;5043660;28;20028;-70
2022/03/14 08:55:19;;;;;;;40.25;25.55;;;;;;;9.33;100.00;102425.97;5070873;28;20037;-70
2022/03/14 08:57:45;;;;;;;42.15;23.55;;;;;;;9.32;100.00;102425.88;5037659;28;20059;-70
2022/03/14 09:00:11;;;;;;;38.38;21.95;;;;;;;9.36;100.00;102420.88;5055520;28;20025;-70
2022/03/14 09:02:36;;;;;;;42.95;23.88;;;;;;;9.39;100.00;102425.38;5062783;28;20075;-71
2022/03/14 09:05:02;;;;;;;40.92;25.30;;;;;;;9.42;100.00;102431.66;5060904;28;20021;-70
2022/03/14 09:07:29;;;;;;;37.50;23.23;;;;;;;9.38;100.00;102434.97;5055842;28;20025;-70
2022/03/14 09:10:01;;;;;;;41.58;24.48;;;;;;;9.53;100.00;102444.41;5055511;28;20036;-70
2022/03/14 09:12:26;;;;;;;35.85;21.10;;;;;;;9.42;100.00;102431.66;5055371;28;20017;-70
2022/03/14 09:14:52;;;;;;;34.25;19.92;;;;;;;9.53;100.00;102437.41;5068311;28;20036;-70
2022/03/14 09:17:17;;;;;;;41.22;20.50;;;;;;;9.64;100.00;102431.75;5058282;28;20035;-70
2022/03/14 09:19:43;;;;;;;30.83;19.63;;;;;;;9.78;100.00;102438.56;5062216;28;20473;-70
2022/03/14 09:22:09;;;;;;;40.17;20.08;;;;;;;9.88;100.00;102442.50;5055865;28;20536;-70
2022/03/14 09:24:36;;;;;;;45.67;19.27;;;;;;;9.91;100.00;102447.88;5055642;28;20461;-70
2022/03/14 09:27:03;;;;;;;31.42;19.23;;;;;;;9.94;100.00;102448.00;5037929;28;20484;-70
2022/03/14 09:29:28;;;;;;;39.47;21.15;;;;;;;9.86;100.00;102442.44;5039428;28;20035;-70
2022/03/14 09:31:55;;;;;;;40.25;21.27;;;;;;;9.93;100.00;102448.88;5066758;28;20479;-70
2022/03/14 09:34:21;;;;;;;61.58;24.15;;;;;;;9.94;100.00;102453.28;5055624;28;20032;-70
2022/03/14 09:36:46;;;;;;;171.40;33.63;;;;;;;10.02;100.00;102462.41;5038154;28;20037;-71
2022/03/14 09:39:13;;;;;;;364.50;55.38;;;;;;;10.15;100.00;102452.44;5056923;28;20108;-70
2022/03/14 09:41:43;;;;;;;308.70;50.30;;;;;;;10.17;100.00;102467.44;5037075;28;20020;-71
2022/03/14 09:44:15;;;;;;;70.40;20.45;;;;;;;10.33;100.00;102484.81;5068520;28;20037;-70
2022/03/14 09:46:45;;;;;;;206.70;37.97;;;;;;;10.15;100.00;102481.34;5054945;28;20438;-71
2022/03/14 09:49:14;;;;;;;34.60;18.58;;;;;;;10.18;100.00;102486.78;5065595;28;20488;-69
2022/03/14 09:51:41;;;;;;;31.08;19.48;;;;;;;10.15;100.00;102489.25;5065120;28;20029;-71
2022/03/14 09:54:07;;;;;;;33.55;22.33;;;;;;;10.16;100.00;102485.78;5048643;28;20252;-71
2022/03/14 09:56:33;;;;;;;30.50;19.90;;;;;;;10.25;100.00;102484.47;5047577;28;20016;-71
2022/03/14 09:59:00;;;;;;;29.05;18.55;;;;;;;10.44;100.00;102486.25;5054663;28;20039;-70
2022/03/14 10:01:27;;;;;;;30.38;18.33;;;;;;;10.59;100.00;102485.09;5020986;28;20035;-71
2022/03/14 10:03:54;;;;;;;788.97;110.93;;;;;;;10.76;100.00;102485.81;5038027;28;20034;-70
2022/03/14 10:06:19;;;;;;;77.22;21.17;;;;;;;10.91;99.69;102501.38;5057101;28;20035;-71
2022/03/14 10:08:45;;;;;;;459.02;60.45;;;;;;;10.86;99.77;102489.72;5055098;28;20104;-70
2022/03/14 10:11:10;;;;;;;38.70;16.75;;;;;;;10.95;99.28;102500.66;5054499;28;20021;-71
2022/03/14 10:13:37;;;;;;;34.78;15.38;;;;;;;11.19;98.70;102506.03;5057314;28;20111;-70
2022/03/14 10:16:03;;;;;;;22.60;13.50;;;;;;;11.48;97.85;102507.19;5063191;28;20446;-71
2022/03/14 10:18:35;;;;;;;23.25;13.57;;;;;;;11.46;96.63;102503.63;5039875;28;20032;-71
2022/03/14 10:21:05;;;;;;;23.48;12.30;;;;;;;11.61;95.67;102507.66;5053192;28;20074;-71
2022/03/14 10:23:43;;;;;;;23.35;11.05;;;;;;;11.40;96.22;102506.00;5036423;28;20473;-71
2022/03/14 10:26:15;;;;;;;86.80;13.35;;;;;;;11.83;94.02;102509.41;5064938;28;20031;-70
2022/03/14 10:28:41;;;;;;;28.08;10.68;;;;;;;11.90;93.58;102506.16;5055025;28;20024;-70
2022/03/14 10:31:06;;;;;;;19.63;9.68;;;;;;;11.84;93.40;102512.94;5063591;28;20118;-70
2022/03/14 10:33:33;;;;;;;18.88;10.25;;;;;;;11.99;91.95;102516.19;5037421;28;20034;-70
2022/03/14 10:35:59;;;;;;;42.47;11.77;;;;;;;11.92;92.55;102520.34;5066114;28;20039;-70
2022/03/14 10:38:26;;;;;;;19.58;11.07;;;;;;;11.70;93.87;102534.41;5061794;28;20111;-70
2022/03/14 10:40:52;;;;;;;20.77;10.50;;;;;;;11.77;93.50;102535.53;5066257;28;20029;-70
2022/03/14 10:43:28;;;;;;;18.83;10.27;;;;;;;11.78;93.64;102532.97;5062976;28;20476;-70
2022/03/14 10:45:57;;;;;;;47.22;10.68;;;;;;;11.98;93.74;102539.03;5039808;28;20446;-70
2022/03/14 10:48:34;;;;;;;19.20;8.82;;;;;;;11.84;93.59;102534.03;5048191;28;20111;-70
2022/03/14 10:51:08;;;;;;;22.25;10.10;;;;;;;11.88;92.58;102531.59;5061442;28;20029;-70
2022/03/14 10:53:39;;;;;;;29.98;10.48;;;;;;;12.22;91.71;102545.19;5064587;28;20036;-71
2022/03/14 10:56:05;;;;;;;23.10;9.57;;;;;;;12.39;90.11;102533.50;5054247;28;20053;-70
2022/03/14 10:58:33;;;;;;;31.02;9.40;;;;;;;12.58;90.40;102548.28;5068604;28;20052;-70
2022/03/14 11:01:04;;;;;;;20.45;9.10;;;;;;;12.47;90.62;102547.88;5060962;28;20079;-70
2022/03/14 11:03:31;;;;;;;32.33;9.48;;;;;;;12.67;89.93;102560.91;5055837;28;20078;-71
2022/03/14 11:06:06;;;;;;;20.27;9.00;;;;;;;12.54;88.77;102556.03;5053618;28;20033;-71
2022/03/14 11:08:38;;;;;;;16.20;8.48;;;;;;;12.57;89.22;102564.06;5057977;28;20055;-71
2022/03/14 11:11:09;;;;;;;17.50;9.02;;;;;;;12.75;89.18;102574.38;5059853;28;20060;-71